createdAt,value
2017-11-22T00:03:51.404Z,84.27
2017-11-22T00:06:18.994Z,84.41
2017-11-22T00:08:46.534Z,84.44
2017-11-22T00:11:14.034Z,84.59
2017-11-22T00:13:41.754Z,84.67
2017-11-22T00:16:09.317Z,84.98
2017-11-22T00:18:36.931Z,84.80
2017-11-22T00:21:04.498Z,84.65
2017-11-22T00:23:31.992Z,84.10
2017-11-22T00:26:00.355Z,84.27
2017-11-22T00:28:27.832Z,84.29
2017-11-22T00:30:55.505Z,84.16
2017-11-22T00:33:23.049Z,84.31
2017-11-22T00:35:50.592Z,84.13
2017-11-22T00:38:18.080Z,83.91
2017-11-22T00:40:45.580Z,84.39
2017-11-22T00:43:13.038Z,84.22
2017-11-22T00:45:40.544Z,84.09
2017-11-22T00:48:09.230Z,83.90
2017-11-22T00:50:36.693Z,83.26
2017-11-22T00:53:04.253Z,83.14
2017-11-22T00:55:31.853Z,83.32
2017-11-22T00:57:59.375Z,82.60
2017-11-22T01:00:26.825Z,82.44
2017-11-22T01:02:54.435Z,82.60
2017-11-22T01:05:22.005Z,82.95
2017-11-22T01:07:49.534Z,83.09
2017-11-22T01:10:17.115Z,83.08
2017-11-22T01:12:44.795Z,83.77
2017-11-22T01:15:12.342Z,84.02
2017-11-22T01:17:39.933Z,83.82
2017-11-22T01:20:07.545Z,83.78
2017-11-22T01:22:35.972Z,83.93
2017-11-22T01:25:03.570Z,84.00
2017-11-22T01:27:31.131Z,83.64
2017-11-22T01:29:58.668Z,83.99
2017-11-22T01:32:27.108Z,83.32
2017-11-22T01:34:54.563Z,83.29
2017-11-22T01:37:21.999Z,82.66
2017-11-22T01:39:49.819Z,82.64
2017-11-22T01:42:17.304Z,83.19
2017-11-22T01:44:44.870Z,82.88
2017-11-22T01:47:12.313Z,83.26
2017-11-22T01:49:39.851Z,82.65
2017-11-22T01:52:07.372Z,83.18
2017-11-22T01:54:34.878Z,83.31
2017-11-22T01:57:02.410Z,83.25
2017-11-22T01:59:29.907Z,82.83
2017-11-22T02:02:16.708Z,83.03
2017-11-22T02:04:44.158Z,82.94
2017-11-22T02:07:11.667Z,83.19
2017-11-22T02:09:39.524Z,82.58
2017-11-22T02:12:07.225Z,82.75
2017-11-22T02:14:34.721Z,83.01
2017-11-22T02:17:02.217Z,83.52
2017-11-22T02:19:29.737Z,83.45
2017-11-22T02:21:57.236Z,83.13
2017-11-22T02:24:24.753Z,82.96
2017-11-22T02:26:52.246Z,83.39
2017-11-22T02:29:19.696Z,83.02
2017-11-22T02:31:47.315Z,82.56
2017-11-22T02:34:14.800Z,81.95
2017-11-22T02:36:42.268Z,81.43
2017-11-22T02:39:09.882Z,80.91
2017-11-22T02:41:37.365Z,80.68
2017-11-22T02:44:04.851Z,81.24
2017-11-22T02:46:32.298Z,81.03
2017-11-22T02:48:59.766Z,82.04
2017-11-22T02:51:27.251Z,81.56
2017-11-22T02:53:54.749Z,81.57
2017-11-22T02:56:22.229Z,81.68
2017-11-22T02:58:49.714Z,82.64
2017-11-22T03:01:17.228Z,82.66
2017-11-22T03:03:44.700Z,83.07
2017-11-22T03:06:12.202Z,82.79
2017-11-22T03:08:39.722Z,82.78
2017-11-22T03:11:07.202Z,83.83
2017-11-22T03:13:34.715Z,83.09
2017-11-22T03:16:02.233Z,83.21
2017-11-22T03:18:29.709Z,83.25
2017-11-22T03:20:57.173Z,83.13
2017-11-22T03:23:24.641Z,83.36
2017-11-22T03:25:52.211Z,83.16
2017-11-22T03:28:19.755Z,83.26
2017-11-22T03:30:47.214Z,82.62
2017-11-22T03:33:14.713Z,82.92
2017-11-22T03:35:42.164Z,82.83
2017-11-22T03:38:09.899Z,82.80
2017-11-22T03:41:01.003Z,83.09
2017-11-22T03:43:28.470Z,82.94
2017-11-22T03:45:56.059Z,83.19
2017-11-22T03:48:23.543Z,83.05
2017-11-22T03:50:56.823Z,83.03
2017-11-22T03:53:30.008Z,82.74
2017-11-22T03:55:57.520Z,82.29
2017-11-22T03:58:25.928Z,82.27
2017-11-22T04:00:53.371Z,82.60
2017-11-22T04:03:20.916Z,81.94
2017-11-22T04:05:53.895Z,81.66
2017-11-22T04:08:27.207Z,81.36
2017-11-22T04:10:54.668Z,81.42
2017-11-22T04:13:22.288Z,81.25
2017-11-22T04:15:49.718Z,81.34
2017-11-22T04:18:19.989Z,80.84
2017-11-22T04:20:53.179Z,80.82
2017-11-22T04:23:20.700Z,80.99
2017-11-22T04:25:48.126Z,81.07
2017-11-22T04:28:15.582Z,80.90
2017-11-22T04:30:43.087Z,80.50
2017-11-22T04:33:10.562Z,80.07
2017-11-22T04:35:38.022Z,80.24
2017-11-22T04:38:05.536Z,79.90
2017-11-22T04:43:26.000Z,79.79
2017-11-22T04:45:53.442Z,79.24
2017-11-22T04:48:21.066Z,79.19
2017-11-22T04:50:48.577Z,79.81
2017-11-22T04:53:16.127Z,79.11
2017-11-22T04:55:45.577Z,79.06
2017-11-22T04:58:13.040Z,79.20
2017-11-22T05:00:40.543Z,79.42
2017-11-22T05:03:08.010Z,78.90
2017-11-22T05:05:35.486Z,78.84
2017-11-22T05:08:02.945Z,78.88
2017-11-22T05:10:30.517Z,78.93
2017-11-22T05:12:58.053Z,78.78
2017-11-22T05:15:25.534Z,79.12
2017-11-22T05:17:53.114Z,79.11
2017-11-22T05:20:20.698Z,78.81
2017-11-22T05:22:48.289Z,79.01
2017-11-22T05:25:15.773Z,78.94
2017-11-22T05:27:43.216Z,78.99
2017-11-22T05:30:10.666Z,79.25
2017-11-22T05:32:38.125Z,78.61
2017-11-22T05:35:05.628Z,78.59
2017-11-22T05:37:33.105Z,79.05
2017-11-22T05:40:00.631Z,78.91
2017-11-22T05:42:28.088Z,79.02
2017-11-22T05:44:55.625Z,78.77
2017-11-22T05:47:23.102Z,78.76
2017-11-22T05:49:50.514Z,78.86
2017-11-22T05:52:17.976Z,78.68
2017-11-22T05:54:47.287Z,78.42
2017-11-22T05:57:14.737Z,78.35
2017-11-22T05:59:42.197Z,78.66
2017-11-22T06:02:09.664Z,78.30
2017-11-22T06:04:37.186Z,78.31
2017-11-22T06:07:04.671Z,78.75
2017-11-22T06:09:32.137Z,78.17
2017-11-22T06:11:59.670Z,78.07
2017-11-22T06:14:27.221Z,78.33
2017-11-22T06:16:54.674Z,78.12
2017-11-22T06:19:22.272Z,78.40
2017-11-22T06:21:50.340Z,78.48
2017-11-22T06:24:18.790Z,78.15
2017-11-22T06:26:46.276Z,78.35
2017-11-22T06:29:13.776Z,78.59
2017-11-22T06:31:41.468Z,78.14
2017-11-22T06:34:09.130Z,78.54
2017-11-22T06:36:36.897Z,78.20
2017-11-22T06:39:06.149Z,78.44
2017-11-22T06:41:33.703Z,78.59
2017-11-22T06:44:01.161Z,78.94
2017-11-22T06:46:29.177Z,78.44
2017-11-22T06:48:57.169Z,78.93
2017-11-22T06:51:24.668Z,77.99
2017-11-22T06:53:52.218Z,78.24
2017-11-22T06:56:19.902Z,78.27
2017-11-22T06:58:53.875Z,78.53
2017-11-22T07:01:21.841Z,78.44
2017-11-22T07:03:55.266Z,78.16
2017-11-22T07:06:22.977Z,78.33
2017-11-22T07:08:50.729Z,78.28
2017-11-22T07:11:19.156Z,78.11
2017-11-22T07:13:46.908Z,78.19
2017-11-22T07:16:19.961Z,77.87
2017-11-22T07:18:47.419Z,78.49
2017-11-22T07:21:14.892Z,78.17
2017-11-22T07:23:42.435Z,78.05
2017-11-22T07:26:09.954Z,78.33
2017-11-22T07:28:37.657Z,78.18
2017-11-22T07:31:05.157Z,78.31
2017-11-22T07:33:32.986Z,78.10
2017-11-22T07:36:06.077Z,78.33
2017-11-22T07:38:33.556Z,78.14
2017-11-22T07:41:01.036Z,78.10
2017-11-22T07:43:28.503Z,78.52
2017-11-22T07:45:56.029Z,78.19
2017-11-22T07:48:23.566Z,78.17
2017-11-22T07:50:51.201Z,78.55
2017-11-22T07:53:18.721Z,78.11
2017-11-22T07:55:49.125Z,78.06
2017-11-22T07:58:16.652Z,77.85
2017-11-22T08:00:44.272Z,77.46
2017-11-22T08:03:11.821Z,77.76
2017-11-22T08:05:39.465Z,77.67
2017-11-22T08:08:15.808Z,77.67
2017-11-22T08:10:43.476Z,77.42
2017-11-22T08:13:10.988Z,77.48
2017-11-22T08:15:39.838Z,77.17
2017-11-22T08:18:07.320Z,77.24
2017-11-22T08:20:34.898Z,77.01
2017-11-22T08:23:02.505Z,77.09
2017-11-22T08:25:30.062Z,77.56
2017-11-22T08:27:57.804Z,77.57
2017-11-22T08:30:25.531Z,77.65
2017-11-22T08:32:53.201Z,77.49
2017-11-22T08:35:20.758Z,77.72
2017-11-22T08:37:49.227Z,77.89
2017-11-22T08:40:21.741Z,78.44
2017-11-22T08:42:54.815Z,78.75
2017-11-22T08:45:23.941Z,79.06
2017-11-22T08:47:51.503Z,79.29
2017-11-22T08:50:20.061Z,79.31
2017-11-22T08:52:47.833Z,79.65
2017-11-22T08:55:20.873Z,79.73
2017-11-22T08:57:53.903Z,79.67
2017-11-22T09:00:21.672Z,79.91
2017-11-22T09:02:50.199Z,79.75
2017-11-22T09:05:17.694Z,79.94
2017-11-22T09:07:45.356Z,80.11
2017-11-22T09:10:13.396Z,80.10
2017-11-22T09:15:34.913Z,81.08
2017-11-22T09:18:07.542Z,81.32
2017-11-22T09:20:35.855Z,82.24
2017-11-22T09:23:05.497Z,81.37
2017-11-22T09:25:40.346Z,80.67
2017-11-22T09:28:08.165Z,80.41
2017-11-22T09:30:54.129Z,80.65
2017-11-22T09:33:28.388Z,80.68
2017-11-22T09:35:57.422Z,80.78
2017-11-22T09:38:26.719Z,81.32
2017-11-22T09:40:54.351Z,81.71
2017-11-22T09:43:22.844Z,82.29
2017-11-22T09:45:51.728Z,82.67
2017-11-22T09:48:19.477Z,83.08
2017-11-22T09:51:18.765Z,83.65
2017-11-22T09:54:01.144Z,83.98
2017-11-22T09:56:33.182Z,84.37
2017-11-22T09:59:01.913Z,84.50
2017-11-22T10:01:31.003Z,84.22
2017-11-22T10:03:58.908Z,83.85
2017-11-22T10:06:26.491Z,83.93
2017-11-22T10:08:54.748Z,83.90
2017-11-22T10:11:22.573Z,83.96
2017-11-22T10:13:50.784Z,83.41
2017-11-22T10:16:18.866Z,83.41
2017-11-22T10:18:46.573Z,83.33
2017-11-22T10:21:27.637Z,83.02
2017-11-22T10:23:55.557Z,82.69
2017-11-22T10:26:29.233Z,82.43
2017-11-22T10:29:12.720Z,81.87
2017-11-22T10:31:46.509Z,81.91
2017-11-22T10:34:14.959Z,81.90
2017-11-22T10:37:04.030Z,81.57
2017-11-22T10:39:34.530Z,80.43
2017-11-22T10:42:02.290Z,80.61
2017-11-22T10:44:30.154Z,80.32
2017-11-22T10:46:58.199Z,80.29
2017-11-22T10:49:27.244Z,79.59
2017-11-22T10:51:54.958Z,79.47
2017-11-22T10:54:22.577Z,78.54
2017-11-22T10:56:50.711Z,78.22
2017-11-22T10:59:19.178Z,77.08
2017-11-22T11:01:52.361Z,76.16
2017-11-22T11:04:21.233Z,76.26
2017-11-22T11:06:50.516Z,75.30
2017-11-22T11:09:20.087Z,74.11
2017-11-22T11:11:52.827Z,74.00
2017-11-22T11:14:21.210Z,73.72
2017-11-22T11:16:48.901Z,73.68
2017-11-22T11:19:16.802Z,72.27
2017-11-22T11:21:50.201Z,72.33
2017-11-22T11:24:18.586Z,71.72
2017-11-22T11:26:49.546Z,71.80
2017-11-22T11:29:19.002Z,71.15
2017-11-22T11:34:39.561Z,70.93
2017-11-22T11:37:13.497Z,70.23
2017-11-22T11:39:41.634Z,70.04
2017-11-22T11:42:09.135Z,69.68
2017-11-22T11:44:36.653Z,69.72
2017-11-22T11:47:06.025Z,69.99
2017-11-22T11:49:33.728Z,69.19
2017-11-22T11:52:01.327Z,69.18
2017-11-22T11:54:28.919Z,69.42
2017-11-22T11:56:57.578Z,68.95
2017-11-22T11:59:25.244Z,68.93
2017-11-22T12:01:52.807Z,69.29
2017-11-22T12:04:21.911Z,68.73
2017-11-22T12:06:49.627Z,69.09
2017-11-22T12:09:17.263Z,68.61
2017-11-22T12:20:33.222Z,70.13
2017-11-22T12:23:06.451Z,70.11
2017-11-22T12:25:35.609Z,69.13
2017-11-22T12:28:03.541Z,68.87
2017-11-22T12:30:31.448Z,68.81
2017-11-22T12:33:00.707Z,68.64
2017-11-22T12:35:31.239Z,69.33
2017-11-22T12:37:59.507Z,69.15
2017-11-22T12:40:27.331Z,68.87
2017-11-22T12:42:55.981Z,68.84
2017-11-22T12:45:24.075Z,68.80
2017-11-22T12:47:52.037Z,68.75
2017-11-22T12:50:19.870Z,68.64
2017-11-22T12:52:52.581Z,68.66
2017-11-22T12:55:21.436Z,68.69
2017-11-22T12:57:54.961Z,68.81
2017-11-22T13:00:22.785Z,69.11
2017-11-22T13:02:54.517Z,69.09
2017-11-22T13:05:22.361Z,68.49
2017-11-22T13:07:50.484Z,68.65
2017-11-22T13:10:19.970Z,68.83
2017-11-22T13:12:47.585Z,68.49
2017-11-22T13:17:59.718Z,68.84
2017-11-22T13:20:27.723Z,68.65
2017-11-22T13:22:55.234Z,68.85
2017-11-22T13:25:23.220Z,68.70
2017-11-22T13:27:51.099Z,69.13
2017-11-22T13:30:18.775Z,69.20
2017-11-22T13:32:46.494Z,69.27
2017-11-22T13:35:14.980Z,69.83
2017-11-22T13:37:42.588Z,69.88
2017-11-22T13:40:10.321Z,70.23
2017-11-22T13:42:40.548Z,70.11
2017-11-22T13:45:09.182Z,70.50
2017-11-22T13:47:36.930Z,70.49
2017-11-22T13:50:04.536Z,70.50
2017-11-22T13:52:32.269Z,70.81
2017-11-22T13:55:00.735Z,70.49
2017-11-22T13:57:28.862Z,70.63
2017-11-22T13:59:57.595Z,70.95
2017-11-22T14:02:25.347Z,71.22
2017-11-22T14:04:54.030Z,71.05
2017-11-22T14:07:21.508Z,71.29
2017-11-22T14:09:49.012Z,71.54
2017-11-22T14:12:17.039Z,71.61
2017-11-22T14:14:47.581Z,72.37
2017-11-22T14:17:19.613Z,72.48
2017-11-22T14:19:48.032Z,72.22
2017-11-22T14:22:16.902Z,72.33
2017-11-22T14:24:45.392Z,72.18
2017-11-22T14:27:13.147Z,71.84
2017-11-22T14:29:40.674Z,72.17
2017-11-22T14:32:10.027Z,72.42
2017-11-22T14:34:38.215Z,71.92
2017-11-22T14:37:07.089Z,71.90
2017-11-22T14:39:34.831Z,72.02
2017-11-22T14:42:02.431Z,72.14
2017-11-22T14:44:30.158Z,72.64
2017-11-22T14:46:57.804Z,72.23
2017-11-22T14:49:26.117Z,71.96
2017-11-22T14:51:55.752Z,72.53
2017-11-22T14:54:23.650Z,72.61
2017-11-22T14:56:51.411Z,72.58
2017-11-22T14:59:21.231Z,72.90
2017-11-22T15:01:49.246Z,72.93
2017-11-22T15:04:18.386Z,72.84
2017-11-22T15:06:48.007Z,72.47
2017-11-22T15:09:15.659Z,72.39
2017-11-22T15:11:43.396Z,72.32
2017-11-22T15:14:11.094Z,72.24
2017-11-22T15:16:38.715Z,72.48
2017-11-22T15:19:06.484Z,72.55
2017-11-22T15:21:34.062Z,72.63
2017-11-22T15:24:01.743Z,72.97
2017-11-22T15:26:29.394Z,72.95
2017-11-22T15:28:56.977Z,72.82
2017-11-22T15:31:24.619Z,72.92
2017-11-22T15:33:52.215Z,73.54
2017-11-22T15:36:19.839Z,73.62
2017-11-22T15:38:47.400Z,73.71
2017-11-22T15:41:15.021Z,74.04
2017-11-22T15:43:42.825Z,73.75
2017-11-22T15:46:10.410Z,73.75
2017-11-22T15:48:38.055Z,73.55
2017-11-22T15:51:05.642Z,73.47
2017-11-22T15:53:33.109Z,73.59
2017-11-22T15:56:00.687Z,73.80
2017-11-22T15:58:28.506Z,73.60
2017-11-22T16:00:56.072Z,73.94
2017-11-22T16:03:23.599Z,74.24
2017-11-22T16:05:51.166Z,74.15
2017-11-22T16:08:18.696Z,74.08
2017-11-22T16:10:46.226Z,74.19
2017-11-22T16:13:13.783Z,74.05
2017-11-22T16:15:41.472Z,74.23
2017-11-22T16:18:08.977Z,73.97
2017-11-22T16:20:36.593Z,74.43
2017-11-22T16:23:04.121Z,74.06
2017-11-22T16:25:31.620Z,74.45
2017-11-22T16:27:59.231Z,74.37
2017-11-22T16:30:26.802Z,74.49
2017-11-22T16:32:59.781Z,74.61
2017-11-22T16:35:27.322Z,74.40
2017-11-22T16:37:54.910Z,74.61
2017-11-22T16:40:22.507Z,74.74
2017-11-22T16:45:43.324Z,74.59
2017-11-22T16:48:10.790Z,74.94
2017-11-22T16:50:38.468Z,74.78
2017-11-22T16:53:05.930Z,75.08
2017-11-22T16:55:33.437Z,75.20
2017-11-22T16:58:01.016Z,75.00
2017-11-22T17:00:28.581Z,75.19
2017-11-22T17:03:13.898Z,74.87
2017-11-22T17:05:41.452Z,74.18
2017-11-22T17:08:11.446Z,74.52
2017-11-22T17:11:04.076Z,74.60
2017-11-22T17:13:46.119Z,74.39
2017-11-22T17:18:52.705Z,74.44
2017-11-22T17:21:25.451Z,74.33
2017-11-22T17:23:54.958Z,74.30
2017-11-22T17:26:22.503Z,74.45
2017-11-22T17:28:51.614Z,74.53
2017-11-22T17:31:24.235Z,74.43
2017-11-22T17:33:51.866Z,74.29
2017-11-22T17:36:21.055Z,74.47
2017-11-22T17:38:48.578Z,75.16
2017-11-22T17:41:17.024Z,74.99
2017-11-22T17:43:46.498Z,74.33
2017-11-22T17:46:14.156Z,73.30
2017-11-22T17:48:42.039Z,73.30
2017-11-22T17:51:09.570Z,73.59
2017-11-22T17:53:43.729Z,73.79
2017-11-22T17:56:11.898Z,74.14
2017-11-22T17:58:39.443Z,74.29
2017-11-22T18:01:07.218Z,74.54
2017-11-22T18:03:34.754Z,74.54
2017-11-22T18:06:02.409Z,74.18
2017-11-22T18:08:29.898Z,74.32
2017-11-22T18:10:58.150Z,74.18
2017-11-22T18:13:26.319Z,74.63
2017-11-22T18:15:56.957Z,74.62
2017-11-22T18:18:27.914Z,74.86
2017-11-22T18:20:55.563Z,74.96
2017-11-22T18:23:23.221Z,74.66
2017-11-22T18:25:50.728Z,74.61
2017-11-22T18:28:18.252Z,74.60
2017-11-22T18:30:45.888Z,75.06
2017-11-22T18:33:13.482Z,74.99
2017-11-22T18:35:41.162Z,75.14
2017-11-22T18:38:08.766Z,75.04
2017-11-22T18:40:36.288Z,75.05
2017-11-22T18:43:03.787Z,74.93
2017-11-22T18:45:31.283Z,75.00
2017-11-22T18:47:58.852Z,75.16
2017-11-22T18:50:26.390Z,75.27
2017-11-22T18:52:53.975Z,75.31
2017-11-22T18:55:21.492Z,75.41
2017-11-22T18:57:49.222Z,75.50
2017-11-22T19:00:17.518Z,75.32
2017-11-22T19:02:45.271Z,75.38
2017-11-22T19:05:14.374Z,75.53
2017-11-22T19:07:42.603Z,75.74
2017-11-22T19:10:10.890Z,76.00
2017-11-22T19:12:38.557Z,75.71
2017-11-22T19:15:06.203Z,75.79
2017-11-22T19:17:33.663Z,75.82
2017-11-22T19:20:01.317Z,75.97
2017-11-22T19:25:11.583Z,75.90
2017-11-22T19:27:39.241Z,76.02
2017-11-22T19:30:07.720Z,75.96
2017-11-22T19:32:35.889Z,76.12
2017-11-22T19:35:03.651Z,76.03
2017-11-22T19:37:31.257Z,76.04
2017-11-22T19:39:59.085Z,76.03
2017-11-22T19:42:26.662Z,75.87
2017-11-22T19:44:54.424Z,75.80
2017-11-22T19:47:22.055Z,75.74
2017-11-22T19:49:49.931Z,76.01
2017-11-22T19:52:18.498Z,76.02
2017-11-22T19:54:46.269Z,75.92
2017-11-22T19:57:13.995Z,75.88
2017-11-22T19:59:41.828Z,76.26
2017-11-22T20:02:09.750Z,76.09
2017-11-22T20:04:37.414Z,76.16
2017-11-22T20:07:17.014Z,76.16
2017-11-22T20:09:45.674Z,76.32
2017-11-22T20:12:14.148Z,76.29
2017-11-22T20:14:41.924Z,76.47
2017-11-22T20:17:10.532Z,76.58
2017-11-22T20:19:39.097Z,76.44
2017-11-22T20:22:06.723Z,76.51
2017-11-22T20:24:34.214Z,76.74
2017-11-22T20:27:01.814Z,77.02
2017-11-22T20:29:29.315Z,77.05
2017-11-22T20:31:56.865Z,77.04
2017-11-22T20:34:24.648Z,77.00
2017-11-22T20:36:52.267Z,77.03
2017-11-22T20:39:19.770Z,77.17
2017-11-22T20:41:47.478Z,77.28
2017-11-22T20:44:15.308Z,77.02
2017-11-22T20:46:42.805Z,77.03
2017-11-22T20:49:10.351Z,77.04
2017-11-22T20:51:37.970Z,77.05
2017-11-22T20:54:05.525Z,76.88
2017-11-22T20:56:33.102Z,76.84
2017-11-22T20:59:00.630Z,76.90
2017-11-22T21:01:28.251Z,76.96
2017-11-22T21:03:55.761Z,76.99
2017-11-22T21:06:23.341Z,77.24
2017-11-22T21:08:50.870Z,77.00
2017-11-22T21:11:18.409Z,77.29
2017-11-22T21:13:46.868Z,77.07
2017-11-22T21:16:14.628Z,77.23
2017-11-22T21:18:42.363Z,77.25
2017-11-22T21:21:09.911Z,77.04
2017-11-22T21:23:37.521Z,76.81
2017-11-22T21:26:05.044Z,76.88
2017-11-22T21:28:32.661Z,76.97
2017-11-22T21:31:05.303Z,76.87
2017-11-22T21:33:33.008Z,77.14
2017-11-22T21:36:00.525Z,76.93
2017-11-22T21:38:28.112Z,76.81
2017-11-22T21:41:10.111Z,77.02
2017-11-22T21:43:38.056Z,76.69
2017-11-22T21:46:05.659Z,76.68
2017-11-22T21:48:33.288Z,76.71
2017-11-22T21:51:00.941Z,76.70
2017-11-22T21:53:28.620Z,76.77
2017-11-22T21:55:56.795Z,76.62
2017-11-22T21:58:24.390Z,76.37
2017-11-22T22:00:57.011Z,76.41
2017-11-22T22:03:24.967Z,76.21
2017-11-22T22:05:52.717Z,76.14
2017-11-22T22:08:21.202Z,75.95
2017-11-22T22:10:48.769Z,76.12
2017-11-22T22:13:16.309Z,76.21
2017-11-22T22:15:43.964Z,75.93
2017-11-22T22:18:12.456Z,75.76
2017-11-22T22:20:40.167Z,75.87
2017-11-22T22:23:07.809Z,75.52
2017-11-22T22:25:35.480Z,75.55
2017-11-22T22:28:03.078Z,75.49
2017-11-22T22:30:30.602Z,75.38
2017-11-22T22:32:58.283Z,75.58
2017-11-22T22:35:25.772Z,75.69
2017-11-22T22:37:53.403Z,75.60
2017-11-22T22:40:21.244Z,75.41
2017-11-22T22:42:48.726Z,75.61
2017-11-22T22:45:16.226Z,75.34
2017-11-22T22:47:43.733Z,75.38
2017-11-22T22:50:11.233Z,75.43
2017-11-22T22:52:44.014Z,75.48
2017-11-22T22:55:11.680Z,75.37
2017-11-22T22:57:39.190Z,75.19
2017-11-22T23:00:07.006Z,74.75
2017-11-22T23:02:35.463Z,74.90
2017-11-22T23:05:03.010Z,74.93
2017-11-22T23:07:30.533Z,74.55
2017-11-22T23:09:58.046Z,74.54
2017-11-22T23:12:25.523Z,74.54
2017-11-22T23:14:53.009Z,74.50
2017-11-22T23:17:20.539Z,74.30
2017-11-22T23:19:48.015Z,74.39
2017-11-22T23:22:15.542Z,74.49
2017-11-22T23:24:43.025Z,74.60
2017-11-22T23:27:10.489Z,74.85
2017-11-22T23:29:37.960Z,74.63
2017-11-22T23:32:05.478Z,74.53
2017-11-22T23:34:33.672Z,74.25
2017-11-22T23:37:01.131Z,74.00
2017-11-22T23:39:28.611Z,74.25
2017-11-22T23:41:56.802Z,74.42
2017-11-22T23:44:24.342Z,74.52
2017-11-22T23:46:51.866Z,74.46
2017-11-22T23:49:19.549Z,74.61
2017-11-22T23:51:47.181Z,74.38
2017-11-22T23:54:14.954Z,74.25
2017-11-22T23:56:42.384Z,73.85
2017-11-22T23:59:09.928Z,73.56
